Latest Weather Observations for Toolara

IDQ60801

Issued at 4:05 pm EST Thursday 21 August 2014 (issued every 30 minutes, with the page automatically refreshed every 10 minutes)

About weather observations | Map of weather stations | Latest weather observations for QLD | Other Formats
Station Details ID: 040555 Name: TOOLARA (KELLY) Lat: -25.97 Lon: 152.86 Height: 143.0 m
Data from the previous 72 hours. | See also: Recent months at Toolara
Date/Time
EST
Temp
°C
App
Temp
°C
Dew
Point
Rel
Hum
%
Delta-T
°C
Wind Press
QNH
hPa
Press
MSL
hPa
Rain
since 9 am
mm
Dir
 
Spd
km/h
Gust
km/h
Spd
kts
Gust
kts
21/04:00pm 19.1 17.4 12.6 66 3.7 - 13 24 7 13 - - -
21/03:30pm 18.6 17.0 11.7 64 3.8 - 11 15 6 8 - - -
21/03:00pm 20.3 - 13.3 64 4.0 - - - - - - - 0.0
21/02:30pm 19.1 - 12.1 64 3.9 - - - - - - - -
21/02:00pm 19.4 - 12.4 64 3.9 - - - - - - - -
21/01:30pm 20.2 - 12.7 62 4.3 - - - - - - - -
21/01:00pm 20.6 - 13.6 64 4.0 - - - - - - - -
21/12:30pm 19.5 - 13.0 66 3.7 - - - - - - - -
21/12:00pm 20.0 - 13.0 64 4.0 - - - - - - - -
21/11:30am 19.6 - 12.8 65 3.9 - - - - - - - -
21/11:00am 18.8 - 11.9 64 3.8 - - - - - - - -
21/10:30am 19.0 - 12.7 67 3.6 - - - - - - - -
21/10:00am 19.7 - 13.9 69 3.4 - - - - - - - -
21/09:30am 18.2 - 13.1 72 2.9 - - - - - - - -
21/09:00am 17.6 - 13.1 75 2.5 - - - - - - - 0.0
21/08:30am 16.6 - 13.1 80 2.0 - - - - - - - -
21/08:00am 14.4 - 12.1 86 1.3 - - - - - - - -
21/07:30am 13.7 - 11.6 87 1.1 - - - - - - - -
21/07:00am 13.1 - 11.3 89 1.0 - - - - - - - -
21/06:30am 13.0 - 11.4 90 0.9 - - - - - - - -
21/06:00am 12.8 10.8 11.4 91 0.7 - 13 17 7 9 - - -
21/05:30am 13.0 11.0 11.6 91 0.7 - 13 19 7 10 - - -
21/05:00am 13.2 - 11.9 92 0.7 - - - - - - - -
21/04:30am 13.2 - 12.1 93 0.6 - - - - - - - -
21/04:00am 13.2 - 12.4 95 0.4 - - - - - - - -
21/03:30am 13.1 - 12.5 96 0.3 - - - - - - - -
21/03:00am 13.2 - 12.7 97 0.3 - - - - - - - 0.0
21/02:30am 13.1 - 12.6 97 0.3 - - - - - - - -
21/02:00am 13.0 - 12.7 98 0.2 - - - - - - - -
21/01:30am 13.2 - 12.9 98 0.2 - - - - - - - -
21/01:00am 13.1 - 12.6 97 0.3 - - - - - - - -
21/12:30am 13.1 - 12.5 96 0.3 - - - - - - - -
21/12:00am 13.3 11.7 12.7 96 0.3 - 13 15 7 8 - - -
 
Date/Time
EST
Temp
°C
App
Temp
°C
Dew
Point
Rel
Hum
%
Delta-T
°C
Wind Press
QNH
hPa
Press
MSL
hPa
Rain
since 9 am
mm
Dir
 
Spd
km/h
Gust
km/h
Spd
kts
Gust
kts
20/11:30pm 13.5 - 12.7 95 0.4 - - - - - - - -
20/11:00pm 13.4 - 12.3 93 0.6 - - - - - - - -
20/10:30pm 13.8 - 12.4 91 0.8 - - - - - - - -
20/10:00pm 13.9 - 11.9 88 1.1 - - - - - - - -
20/09:30pm 15.2 - 12.9 86 1.3 - - - - - - - -
20/09:00pm 15.2 - 12.7 85 1.4 - - - - - - - 0.0
20/08:30pm 15.3 - 12.6 84 1.5 - - - - - - - -
20/08:00pm 15.3 - 12.6 84 1.5 - - - - - - - -
20/07:30pm 15.3 - 12.2 82 1.7 - - - - - - - -
20/07:00pm 15.3 - 11.9 80 1.9 - - - - - - - -
20/06:30pm 15.4 - 11.6 78 2.1 - - - - - - - -
20/06:00pm 15.6 13.6 11.4 76 2.3 - 13 17 7 9 - - -
20/05:30pm 16.1 - 11.3 73 2.6 - - - - - - - -
20/05:00pm 16.8 - 11.1 69 3.1 - - - - - - - -
20/04:30pm 17.4 - 10.8 65 3.6 - - - - - - - -
20/04:00pm 18.1 - 10.7 62 4.0 - - - - - - - -
20/03:30pm 18.8 - 10.4 58 4.5 - - - - - - - -
20/03:00pm 19.8 - 10.5 55 5.1 - - - - - - - 0.0
20/02:30pm 20.8 - 10.6 52 5.6 - - - - - - - -
20/02:00pm 21.2 - 11.2 53 5.6 - - - - - - - -
20/01:30pm 21.1 - 10.6 51 5.8 - - - - - - - -
20/01:00pm 21.9 - 11.3 51 5.9 - - - - - - - -
20/12:30pm 21.4 - 10.3 49 6.1 - - - - - - - -
20/12:00pm 21.5 - 10.3 49 6.1 - - - - - - - -
20/11:30am 21.2 - 10.7 51 5.8 - - - - - - - -
20/11:00am 21.7 - 11.1 51 5.9 - - - - - - - -
20/10:30am 21.1 - 11.2 53 5.5 - - - - - - - -
20/10:00am 19.5 - 10.8 57 4.8 - - - - - - - -
20/09:30am 18.1 - 9.7 58 4.5 - - - - - - - -
20/09:00am 17.3 - 10.0 62 3.9 - - - - - - - 0.0
20/08:30am 15.5 - 10.1 70 2.8 - - - - - - - -
20/08:00am 13.5 - 8.8 73 2.4 - - - - - - - -
20/07:30am 12.1 - 8.0 76 2.0 - - - - - - - -
20/07:00am 11.6 - 7.7 77 1.9 - - - - - - - -
20/06:30am 11.6 - 7.7 77 1.9 - - - - - - - -
20/06:00am 11.4 - 7.5 77 1.9 - - - - - - - -
20/05:30am 11.3 - 7.2 76 2.0 - - - - - - - -
20/05:00am 11.8 - 7.3 74 2.2 - - - - - - - -
20/04:30am 12.2 - 7.3 72 2.4 - - - - - - - -
20/04:00am 12.5 - 7.4 71 2.5 - - - - - - - -
20/03:30am 12.4 - 7.3 71 2.5 - - - - - - - -
20/03:00am 11.9 - 6.6 70 2.5 - - - - - - - 0.0
20/02:30am 12.4 - 6.9 69 2.7 - - - - - - - -
20/02:00am 12.6 - 6.9 68 2.8 - - - - - - - -
20/01:30am 12.9 - 6.5 65 3.1 - - - - - - - -
20/01:00am 13.2 - 6.5 64 3.2 - - - - - - - -
20/12:30am 13.3 - 6.4 63 3.3 - - - - - - - -
20/12:00am 14.0 - 6.4 60 3.7 - - - - - - - -
 
Date/Time
EST
Temp
°C
App
Temp
°C
Dew
Point
Rel
Hum
%
Delta-T
°C
Wind Press
QNH
hPa
Press
MSL
hPa
Rain
since 9 am
mm
Dir
 
Spd
km/h
Gust
km/h
Spd
kts
Gust
kts
19/11:30pm 14.4 - 6.3 58 3.9 - - - - - - - -
19/11:00pm 15.1 - 6.4 56 4.2 - - - - - - - -
19/10:30pm 15.3 - 6.3 55 4.4 - - - - - - - -
19/10:00pm 15.2 - 6.0 54 4.5 - - - - - - - -
19/09:30pm 15.4 - 5.9 53 4.6 - - - - - - - -
19/09:00pm 15.8 - 5.7 51 4.9 - - - - - - - 0.0
19/08:30pm 15.9 - 5.5 50 5.0 - - - - - - - -
19/08:00pm 16.6 - 5.6 48 5.3 - - - - - - - -
19/07:30pm 16.8 - 5.4 47 5.5 - - - - - - - -
19/07:00pm 17.4 - 5.7 46 5.7 - - - - - - - -
19/06:30pm 17.2 - 5.8 47 5.6 - - - - - - - -
19/06:00pm 17.8 - 5.7 45 5.9 - - - - - - - -
19/05:30pm 18.4 - 5.9 44 6.2 - - - - - - - -
19/05:00pm 19.7 - 6.1 41 6.8 - - - - - - - -
19/04:30pm 21.1 - 7.3 41 7.1 - - - - - - - -
19/04:00pm 21.7 - 7.9 41 7.2 - - - - - - - -
19/03:30pm 21.6 - 7.8 41 7.2 - - - - - - - -
19/03:00pm 21.5 - 7.0 39 7.5 - - - - - - - 0.0
19/02:30pm 22.5 - 8.2 40 7.6 - - - - - - - -
19/02:00pm 21.5 - 7.7 41 7.2 - - - - - - - -
19/01:30pm 20.9 - 8.2 44 6.7 - - - - - - - -
19/01:00pm 20.3 - 8.0 45 6.4 - - - - - - - -
19/12:30pm 19.7 - 8.7 49 5.8 - - - - - - - -
19/12:00pm 18.9 - 8.8 52 5.3 - - - - - - - -
19/11:30am 18.0 - 8.6 54 4.9 - - - - - - - -
19/11:00am 17.2 - 7.5 53 4.9 - - - - - - - -
19/10:30am 16.7 - 7.6 55 4.6 - - - - - - - -
19/10:00am 16.0 - 7.5 57 4.3 - - - - - - - -
19/09:30am 15.2 - 7.2 59 4.0 - - - - - - - -
19/09:00am 13.9 - 6.5 61 3.6 - - - - - - - 36.0
19/08:30am 13.1 - 6.7 65 3.1 - - - - - - - -
19/08:00am 11.8 - 5.4 65 3.0 - - - - - - - -
19/07:30am 11.0 - 4.7 65 2.9 - - - - - - - -
19/07:00am 10.5 - 4.0 64 2.9 - - - - - - - -
19/06:30am 10.7 - 4.0 63 3.0 - - - - - - - -
19/06:00am 10.8 - 3.8 62 3.1 - - - - - - - -
19/05:30am 11.1 - 3.9 61 3.2 - - - - - - - -
19/05:00am 11.4 - 3.9 60 3.4 - - - - - - - -
19/04:30am 11.5 - 4.0 60 3.4 - - - - - - - -
19/04:00am 11.6 - 3.9 59 3.5 - - - - - - - -
19/03:30am 11.9 - 4.2 59 3.5 - - - - - - - -
19/03:00am 11.8 - 4.3 60 3.4 - - - - - - - 0.0
19/02:30am 11.7 - 4.2 60 3.4 - - - - - - - -
19/02:00am 12.6 - 4.6 58 3.7 - - - - - - - -
19/01:30am 12.2 - 4.4 59 3.6 - - - - - - - -
19/01:00am 12.7 - 4.7 58 3.7 - - - - - - - -
19/12:30am 13.4 - 5.3 58 3.8 - - - - - - - -
19/12:00am 12.8 - 5.2 60 3.6 - - - - - - - -
 
Date/Time
EST
Temp
°C
App
Temp
°C
Dew
Point
Rel
Hum
%
Delta-T
°C
Wind Press
QNH
hPa
Press
MSL
hPa
Rain
since 9 am
mm
Dir
 
Spd
km/h
Gust
km/h
Spd
kts
Gust
kts
18/11:30pm 13.0 - 5.4 60 3.6 - - - - - - - -
18/11:00pm 13.4 - 5.6 59 3.7 - - - - - - - -
18/10:30pm 13.3 - 5.7 60 3.6 - - - - - - - -
18/10:00pm 14.1 - 5.7 57 4.0 - - - - - - - -
18/09:30pm 14.8 - 5.9 55 4.3 - - - - - - - -
18/09:00pm 14.8 - 5.9 55 4.3 - - - - - - - 0.0
18/08:30pm 14.9 - 6.0 55 4.3 - - - - - - - -
18/08:00pm 15.0 - 5.8 54 4.4 - - - - - - - -
18/07:30pm 15.6 - 6.1 53 4.6 - - - - - - - -
18/07:00pm 15.9 - 6.1 52 4.8 - - - - - - - -
18/06:30pm 16.6 - 6.1 50 5.1 - - - - - - - -
18/06:00pm 16.8 - 6.0 49 5.3 - - - - - - - -
18/05:30pm 17.4 - 6.3 48 5.5 - - - - - - - -
18/05:00pm 18.3 - 6.8 47 5.8 - - - - - - - -
18/04:30pm 18.8 - 6.3 44 6.2 - - - - - - - -

Other Formats:

Comma delimited format used in spreadsheet applications
http://www.bom.gov.au/fwo/IDQ60801/IDQ60801.94558.axf

JavaScript Object Notation format (JSON) in row-major order
http://www.bom.gov.au/fwo/IDQ60801/IDQ60801.94558.json